Time;durP1;ratioP1;P1;durP2;ratioP2;P2;SDS_P1;SDS_P2;PMS_P1;PMS_P2;Temp;Humidity;BMP_temperature;BMP_pressure;BME280_temperature;BME280_humidity;BME280_pressure;Samples;Min_cycle;Max_cycle;Signal;HPM_P1;HPM_P2
2021/08/30 00:01:35;;;;;;;4.40;4.10;;;13.70;99.90;;;;;;6261395;22;20189;-88
2021/08/30 00:04:01;;;;;;;4.63;4.33;;;13.70;99.90;;;;;;6262428;22;20163;-87
2021/08/30 00:06:27;;;;;;;4.40;4.10;;;13.70;99.90;;;;;;6261779;22;20196;-88
2021/08/30 00:08:52;;;;;;;4.20;3.90;;;13.70;99.90;;;;;;6257974;22;20237;-87
2021/08/30 00:11:18;;;;;;;4.93;4.63;;;13.70;99.90;;;;;;6261276;22;20170;-88
2021/08/30 00:13:45;;;;;;;5.10;4.70;;;13.70;99.90;;;;;;6262294;22;20589;-88
2021/08/30 00:16:11;;;;;;;5.03;4.67;;;13.70;99.90;;;;;;6234464;22;20945;-88
2021/08/30 00:18:37;;;;;;;5.30;4.90;;;13.70;99.90;;;;;;6261682;22;20412;-88
2021/08/30 00:21:03;;;;;;;6.57;5.97;;;13.80;99.90;;;;;;6263460;22;20712;-89
2021/08/30 00:23:29;;;;;;;6.00;5.50;;;13.70;99.90;;;;;;6236098;22;20393;-88
2021/08/30 00:25:54;;;;;;;5.50;4.97;;;13.70;99.90;;;;;;6261898;22;20440;-88
2021/08/30 00:28:20;;;;;;;5.47;5.07;;;13.80;99.90;;;;;;6263936;22;20504;-88
2021/08/30 00:30:46;;;;;;;5.70;5.30;;;13.80;99.90;;;;;;6261409;22;20524;-88
2021/08/30 00:33:12;;;;;;;5.77;5.33;;;13.70;99.90;;;;;;6264202;22;20169;-88
2021/08/30 00:35:37;;;;;;;6.30;5.80;;;13.70;99.90;;;;;;6262970;22;20237;-88
2021/08/30 00:38:04;;;;;;;6.73;6.13;;;13.80;99.90;;;;;;6262254;22;20169;-87
2021/08/30 00:40:31;;;;;;;6.10;5.60;;;13.70;99.90;;;;;;6236734;22;20441;-89
2021/08/30 00:42:58;;;;;;;6.67;6.17;;;13.80;99.90;;;;;;6261744;22;20385;-88
2021/08/30 00:45:23;;;;;;;6.50;6.00;;;13.80;99.90;;;;;;6237398;22;20444;-88
2021/08/30 00:47:52;;;;;;;7.10;6.50;;;13.80;99.90;;;;;;6262929;22;20735;-88
2021/08/30 00:50:18;;;;;;;7.33;6.57;;;13.80;99.90;;;;;;6263655;22;20536;-87
2021/08/30 00:52:44;;;;;;;8.43;7.70;;;13.80;99.90;;;;;;6264075;22;20381;-88
2021/08/30 00:55:10;;;;;;;8.47;7.77;;;13.80;99.90;;;;;;6238101;22;20172;-88
2021/08/30 00:57:37;;;;;;;9.53;8.20;;;13.90;99.90;;;;;;6238156;22;20404;-88
2021/08/30 01:00:05;;;;;;;9.20;8.30;;;13.90;99.90;;;;;;6264074;22;20401;-88
2021/08/30 01:02:31;;;;;;;9.30;8.10;;;13.90;99.90;;;;;;6239345;22;20389;-87
2021/08/30 01:04:58;;;;;;;9.97;8.97;;;13.90;99.90;;;;;;6238050;22;20460;-88
2021/08/30 01:07:56;;;;;;;9.27;8.40;;;13.90;99.90;;;;;;6241018;22;20403;-88
2021/08/30 01:10:35;;;;;;;10.40;9.40;;;13.90;99.90;;;;;;6238906;22;20388;-88
2021/08/30 01:13:09;;;;;;;13.67;9.80;;;13.90;99.90;;;;;;6265020;22;20396;-88
2021/08/30 01:15:43;;;;;;;11.40;10.30;;;13.90;99.90;;;;;;6239031;22;20909;-88
2021/08/30 01:18:13;;;;;;;12.60;10.10;;;13.90;99.90;;;;;;6238911;22;20409;-87
2021/08/30 01:21:05;;;;;;;10.60;9.50;;;14.00;99.90;;;;;;6238187;22;20405;-88
2021/08/30 01:23:35;;;;;;;10.73;9.73;;;14.00;99.90;;;;;;6237685;22;20424;-88
2021/08/30 01:26:03;;;;;;;9.67;8.67;;;14.00;99.90;;;;;;6238445;22;20437;-88
2021/08/30 01:28:40;;;;;;;11.43;10.30;;;14.00;99.90;;;;;;6264588;22;20934;-88
2021/08/30 01:31:19;;;;;;;12.40;11.20;;;13.90;99.90;;;;;;6238187;22;20415;-88
2021/08/30 01:33:49;;;;;;;10.83;9.83;;;14.00;99.90;;;;;;6237999;22;20449;-88
2021/08/30 01:36:15;;;;;;;9.80;8.80;;;14.00;99.90;;;;;;6263249;22;20401;-88
2021/08/30 01:38:45;;;;;;;9.90;9.00;;;14.00;99.90;;;;;;6263939;22;20389;-88
2021/08/30 01:41:14;;;;;;;10.30;9.20;;;14.00;99.90;;;;;;6258524;22;20401;-87
2021/08/30 01:43:44;;;;;;;10.77;9.77;;;14.00;99.90;;;;;;6264375;22;20440;-88
2021/08/30 01:46:13;;;;;;;9.97;9.03;;;14.00;99.90;;;;;;6262237;22;20464;-87
2021/08/30 01:48:47;;;;;;;9.80;8.77;;;14.10;99.90;;;;;;6259640;22;20875;-88
2021/08/30 01:51:14;;;;;;;8.97;8.17;;;14.10;99.90;;;;;;6262252;22;20480;-87
2021/08/30 01:53:42;;;;;;;9.30;8.50;;;14.10;99.90;;;;;;6261347;22;20393;-87
2021/08/30 01:56:07;;;;;;;9.67;8.77;;;14.00;99.90;;;;;;6263031;22;20389;-88
2021/08/30 02:01:00;;;;;;;9.50;8.40;;;14.00;99.90;;;;;;6264082;22;20179;-87
2021/08/30 02:03:28;;;;;;;8.23;7.43;;;14.00;99.90;;;;;;6261668;22;20898;-88
2021/08/30 02:06:05;;;;;;;9.50;8.57;;;14.00;99.90;;;;;;6261996;22;20193;-87
2021/08/30 02:08:32;;;;;;;11.30;9.80;;;14.00;99.90;;;;;;6264683;22;20395;-88
2021/08/30 02:11:01;;;;;;;10.73;9.63;;;14.00;99.90;;;;;;6261908;22;20396;-88
2021/08/30 02:13:39;;;;;;;12.03;10.73;;;14.10;99.90;;;;;;6264497;22;20517;-88
2021/08/30 02:16:05;;;;;;;11.47;10.40;;;14.10;99.90;;;;;;6239382;22;20393;-88
2021/08/30 02:18:41;;;;;;;12.43;11.30;;;14.10;99.90;;;;;;6236870;22;21033;-88
2021/08/30 02:21:20;;;;;;;13.80;12.60;;;14.10;99.90;;;;;;6236130;22;20821;-88
2021/08/30 02:24:08;;;;;;;13.20;12.00;;;14.10;99.90;;;;;;6235648;22;20389;-89
2021/08/30 02:27:12;;;;;;;12.80;11.47;;;14.10;99.90;;;;;;6238886;22;20864;-89
2021/08/30 02:29:47;;;;;;;12.97;11.77;;;14.10;99.90;;;;;;6173995;22;20450;-89
2021/08/30 02:32:14;;;;;;;13.43;12.23;;;14.00;99.90;;;;;;6238999;22;20952;-89
2021/08/30 02:34:45;;;;;;;13.10;11.90;;;14.00;99.90;;;;;;6236528;22;20748;-88
2021/08/30 02:37:12;;;;;;;13.97;12.67;;;14.00;99.90;;;;;;6235799;22;20462;-88
2021/08/30 02:39:41;;;;;;;13.60;12.30;;;14.00;99.90;;;;;;6236512;22;20763;-88
2021/08/30 02:42:08;;;;;;;13.63;12.30;;;14.00;99.90;;;;;;6237115;22;20401;-88
2021/08/30 02:44:34;;;;;;;13.47;12.27;;;14.00;99.90;;;;;;6236893;22;20813;-89
2021/08/30 02:47:01;;;;;;;13.90;12.57;;;14.00;99.90;;;;;;6240350;22;20869;-88
2021/08/30 02:49:27;;;;;;;13.13;11.83;;;14.00;99.90;;;;;;6236913;22;20385;-88
2021/08/30 02:51:54;;;;;;;15.57;14.00;;;14.00;99.90;;;;;;6237789;22;20471;-88
2021/08/30 02:54:22;;;;;;;14.70;13.40;;;13.90;99.90;;;;;;6237456;22;20393;-88
2021/08/30 02:56:49;;;;;;;13.00;11.73;;;13.90;99.90;;;;;;6236154;22;20454;-88
2021/08/30 02:59:15;;;;;;;14.00;12.60;;;13.80;99.90;;;;;;6238380;22;20395;-88
2021/08/30 03:01:42;;;;;;;14.40;13.00;;;13.80;99.90;;;;;;6237748;22;20394;-88
2021/08/30 03:04:13;;;;;;;13.70;12.23;;;13.80;99.90;;;;;;6237548;22;20879;-88
2021/08/30 03:06:39;;;;;;;14.60;12.63;;;13.70;99.90;;;;;;6238157;22;20444;-88
2021/08/30 03:09:05;;;;;;;13.43;12.23;;;13.80;99.90;;;;;;6237107;22;20421;-88
2021/08/30 03:11:32;;;;;;;14.20;12.90;;;13.80;99.90;;;;;;6237351;22;20404;-88
2021/08/30 03:14:00;;;;;;;15.07;13.57;;;13.80;99.90;;;;;;6237331;22;20396;-88
2021/08/30 03:16:29;;;;;;;14.97;13.53;;;13.70;99.90;;;;;;6239323;22;20728;-88
2021/08/30 03:18:56;;;;;;;13.63;12.00;;;13.70;99.90;;;;;;6237849;22;20954;-87
2021/08/30 03:21:25;;;;;;;14.00;12.70;;;13.70;99.90;;;;;;6263610;22;20703;-88
2021/08/30 03:23:52;;;;;;;13.20;12.00;;;13.70;99.90;;;;;;6264386;22;20476;-87
2021/08/30 03:26:20;;;;;;;13.90;12.60;;;13.70;99.90;;;;;;6261607;22;20472;-88
2021/08/30 03:28:46;;;;;;;12.67;11.47;;;13.70;99.90;;;;;;6264879;22;20756;-88
2021/08/30 03:31:12;;;;;;;13.17;11.97;;;13.70;99.90;;;;;;6261911;22;20412;-88
2021/08/30 03:33:37;;;;;;;11.90;10.73;;;13.70;99.90;;;;;;6263665;22;20165;-88
2021/08/30 03:36:04;;;;;;;11.70;10.50;;;13.70;99.90;;;;;;6265069;22;20158;-88
2021/08/30 03:38:30;;;;;;;11.70;10.60;;;13.70;99.90;;;;;;6263035;22;20769;-88
2021/08/30 03:40:57;;;;;;;10.90;10.00;;;13.70;99.90;;;;;;6263875;22;20427;-88
2021/08/30 03:43:23;;;;;;;10.90;9.77;;;13.70;99.90;;;;;;6262884;22;20489;-89
2021/08/30 03:45:49;;;;;;;9.43;8.53;;;13.70;99.90;;;;;;6236141;22;20960;-89
2021/08/30 03:48:15;;;;;;;9.03;8.23;;;13.70;99.90;;;;;;6237266;22;20413;-88
2021/08/30 03:50:41;;;;;;;10.53;8.77;;;13.60;99.90;;;;;;6238529;22;20378;-89
2021/08/30 03:53:08;;;;;;;8.83;7.93;;;13.60;99.90;;;;;;6262974;22;20401;-88
2021/08/30 03:55:34;;;;;;;9.40;8.50;;;13.60;99.90;;;;;;6237179;22;20385;-88
2021/08/30 03:58:04;;;;;;;9.80;7.90;;;13.60;99.90;;;;;;6260613;22;20385;-87
2021/08/30 04:00:30;;;;;;;8.50;7.70;;;13.60;99.90;;;;;;6234921;22;20462;-87
2021/08/30 04:02:57;;;;;;;9.10;8.30;;;13.60;99.90;;;;;;6286793;22;20862;-87
2021/08/30 04:05:28;;;;;;;9.93;8.27;;;13.60;99.90;;;;;;6237590;22;20477;-87
2021/08/30 04:07:54;;;;;;;8.90;8.10;;;13.60;99.90;;;;;;6236090;22;20384;-88
2021/08/30 04:10:21;;;;;;;8.67;7.87;;;13.60;99.90;;;;;;6237039;22;20403;-88
2021/08/30 04:12:46;;;;;;;10.33;9.40;;;13.70;99.90;;;;;;6236121;22;20388;-88
2021/08/30 04:15:14;;;;;;;10.23;9.43;;;13.60;99.90;;;;;;6263522;22;20404;-87
2021/08/30 04:17:40;;;;;;;11.13;10.03;;;13.60;99.90;;;;;;6257625;22;20237;-88
2021/08/30 04:20:09;;;;;;;12.37;11.10;;;13.60;99.90;;;;;;6206947;23;20401;-88
2021/08/30 04:22:35;;;;;;;12.43;11.33;;;13.60;99.90;;;;;;6203213;23;20159;-88
2021/08/30 04:25:03;;;;;;;11.30;10.30;;;13.70;99.90;;;;;;6206525;23;20820;-88
2021/08/30 04:27:29;;;;;;;12.33;11.13;;;13.70;99.90;;;;;;6209503;23;20390;-87
2021/08/30 04:29:54;;;;;;;11.87;10.77;;;13.70;99.90;;;;;;6207527;23;20508;-87
2021/08/30 04:32:20;;;;;;;12.33;11.20;;;13.70;99.90;;;;;;6209040;23;20159;-89
2021/08/30 04:34:46;;;;;;;12.73;11.43;;;13.70;99.90;;;;;;6207847;23;20159;-88
2021/08/30 04:37:11;;;;;;;12.07;10.97;;;13.70;99.90;;;;;;6208187;23;20174;-87
2021/08/30 04:39:37;;;;;;;12.20;11.00;;;13.70;99.90;;;;;;6206605;23;20169;-88
2021/08/30 04:42:05;;;;;;;13.93;12.53;;;13.70;99.90;;;;;;6209934;23;20171;-88
2021/08/30 04:44:31;;;;;;;11.93;10.73;;;13.70;99.90;;;;;;6206017;23;20169;-88
2021/08/30 04:46:56;;;;;;;13.10;11.80;;;13.70;99.90;;;;;;6205122;23;20404;-88
2021/08/30 04:49:22;;;;;;;12.77;11.47;;;13.70;99.90;;;;;;6205690;23;20477;-88
2021/08/30 04:51:48;;;;;;;12.23;10.97;;;13.80;99.90;;;;;;6204851;23;20173;-88
2021/08/30 04:54:13;;;;;;;13.60;12.00;;;13.70;99.90;;;;;;6205515;23;20189;-88
2021/08/30 04:56:41;;;;;;;14.93;13.43;;;13.80;99.90;;;;;;6207355;23;20242;-91
2021/08/30 04:59:06;;;;;;;13.50;11.40;;;13.80;99.90;;;;;;6209661;23;20169;-90
2021/08/30 05:01:32;;;;;;;13.10;11.80;;;13.80;99.90;;;;;;6206955;23;20405;-89
2021/08/30 05:03:58;;;;;;;16.17;13.47;;;13.70;99.90;;;;;;6209027;23;20938;-89
2021/08/30 05:06:24;;;;;;;17.20;13.80;;;13.80;99.90;;;;;;6204558;23;20442;-91
2021/08/30 05:08:50;;;;;;;15.50;13.20;;;13.80;99.90;;;;;;6208169;23;20803;-95
2021/08/30 05:11:15;;;;;;;16.33;12.40;;;13.70;99.90;;;;;;6214618;23;20195;-92
2021/08/30 05:13:41;;;;;;;17.73;12.83;;;13.70;99.90;;;;;;6205211;23;20208;-90
2021/08/30 05:16:07;;;;;;;19.13;15.50;;;13.80;99.90;;;;;;6214138;23;20244;-91
2021/08/30 05:18:33;;;;;;;24.37;15.70;;;13.80;99.90;;;;;;6209008;23;20174;-91
2021/08/30 05:20:58;;;;;;;19.60;14.70;;;13.70;99.90;;;;;;6209711;23;20217;-88
2021/08/30 05:23:24;;;;;;;19.80;13.87;;;13.80;99.90;;;;;;6206796;23;20170;-90
2021/08/30 05:25:50;;;;;;;23.00;15.90;;;13.70;99.90;;;;;;6210087;23;20517;-93
2021/08/30 05:28:15;;;;;;;16.73;13.30;;;13.80;99.90;;;;;;6209134;23;20170;-90
2021/08/30 05:30:43;;;;;;;21.30;14.97;;;13.80;99.90;;;;;;6210058;23;20586;-93
2021/08/30 05:33:12;;;;;;;16.97;13.10;;;13.70;99.90;;;;;;6209485;23;20158;-92
2021/08/30 05:35:37;;;;;;;15.27;12.40;;;13.80;99.90;;;;;;6209788;23;20402;-92
2021/08/30 05:38:06;;;;;;;15.47;12.20;;;13.80;99.90;;;;;;6208721;23;20195;-89
2021/08/30 05:40:34;;;;;;;14.70;11.97;;;13.80;99.90;;;;;;6210258;23;20171;-90
2021/08/30 05:43:00;;;;;;;12.30;10.40;;;13.80;99.90;;;;;;6210333;23;20406;-92
2021/08/30 05:45:28;;;;;;;11.67;10.10;;;13.90;99.90;;;;;;6209358;23;20464;-88
2021/08/30 05:47:54;;;;;;;12.47;10.63;;;13.80;99.90;;;;;;6209001;23;20163;-90
2021/08/30 05:50:22;;;;;;;14.60;11.10;;;13.90;99.90;;;;;;6209613;23;20409;-89
2021/08/30 05:52:48;;;;;;;10.53;8.90;;;13.90;99.90;;;;;;6209934;23;20244;-88
2021/08/30 05:55:13;;;;;;;9.90;8.70;;;13.90;99.90;;;;;;6234624;23;20434;-92
2021/08/30 05:57:39;;;;;;;10.37;8.70;;;13.90;99.90;;;;;;6235599;23;20166;-90
2021/08/30 06:00:06;;;;;;;9.93;8.63;;;13.90;99.90;;;;;;6234973;23;20358;-92
2021/08/30 06:02:32;;;;;;;10.40;9.30;;;13.90;99.90;;;;;;6233604;23;20280;-89
2021/08/30 06:04:58;;;;;;;12.57;9.50;;;14.00;99.90;;;;;;6235920;23;20463;-88
2021/08/30 06:07:24;;;;;;;9.97;8.87;;;14.00;99.90;;;;;;6235663;23;20487;-90
2021/08/30 06:09:50;;;;;;;10.60;8.90;;;14.00;99.90;;;;;;6235460;23;20155;-90
2021/08/30 06:12:15;;;;;;;11.70;9.83;;;14.00;99.90;;;;;;6235406;23;20245;-90
2021/08/30 06:14:41;;;;;;;11.13;9.57;;;14.00;99.90;;;;;;6229695;23;20428;-89
2021/08/30 06:17:10;;;;;;;11.50;9.57;;;14.00;99.90;;;;;;6233604;23;20652;-88
2021/08/30 06:19:36;;;;;;;11.53;9.73;;;14.10;99.90;;;;;;6207669;23;20189;-87
2021/08/30 06:22:02;;;;;;;13.03;10.43;;;14.10;99.90;;;;;;6234154;23;20386;-87
2021/08/30 06:24:28;;;;;;;11.43;10.33;;;14.10;99.90;;;;;;6207825;23;20169;-86
2021/08/30 06:26:53;;;;;;;12.53;10.67;;;14.10;99.90;;;;;;6209325;23;20526;-89
2021/08/30 06:29:19;;;;;;;15.07;11.23;;;14.20;99.90;;;;;;6208991;23;20665;-88
2021/08/30 06:31:45;;;;;;;12.50;11.17;;;14.20;99.90;;;;;;6209479;23;20171;-90
2021/08/30 06:34:13;;;;;;;11.53;10.40;;;14.20;99.90;;;;;;6204136;23;20167;-88
2021/08/30 06:36:39;;;;;;;13.07;11.20;;;14.30;99.90;;;;;;6208307;23;20401;-87
2021/08/30 06:39:04;;;;;;;12.47;11.00;;;14.30;99.90;;;;;;6208899;23;20549;-90
2021/08/30 06:41:30;;;;;;;13.00;11.30;;;14.40;99.90;;;;;;6208436;23;20401;-87
2021/08/30 06:43:56;;;;;;;13.43;11.07;;;14.50;99.90;;;;;;6209879;23;20590;-87
2021/08/30 06:46:22;;;;;;;12.37;10.90;;;14.40;99.90;;;;;;6206759;23;20197;-88
2021/08/30 06:48:47;;;;;;;13.20;11.50;;;14.40;99.90;;;;;;6208746;23;20425;-86
2021/08/30 06:51:13;;;;;;;12.90;11.50;;;14.40;99.90;;;;;;6201933;23;20557;-87
2021/08/30 06:53:39;;;;;;;13.80;11.30;;;14.40;99.90;;;;;;6196876;23;20496;-89
2021/08/30 06:56:06;;;;;;;13.67;11.73;;;14.40;99.90;;;;;;6204304;23;20584;-87
2021/08/30 07:01:29;;;;;;;12.93;10.87;;;14.40;99.90;;;;;;6231890;23;20396;-89
2021/08/30 07:03:55;;;;;;;12.77;11.47;;;14.40;99.90;;;;;;6215669;23;20447;-88
2021/08/30 07:06:20;;;;;;;14.03;11.40;;;14.40;99.90;;;;;;6208635;23;20924;-87
2021/08/30 07:08:47;;;;;;;11.87;10.67;;;14.50;99.90;;;;;;6208551;23;20163;-89
2021/08/30 07:11:35;;;;;;;11.23;10.07;;;14.40;99.90;;;;;;6207708;23;20236;-88
2021/08/30 07:14:08;;;;;;;12.80;10.73;;;14.50;99.90;;;;;;6205300;23;20389;-86
2021/08/30 07:16:34;;;;;;;12.83;10.47;;;14.60;99.90;;;;;;6208323;23;20800;-88
2021/08/30 07:19:00;;;;;;;10.80;9.80;;;14.70;99.90;;;;;;6207370;23;20409;-87
2021/08/30 07:21:28;;;;;;;12.43;10.20;;;14.70;99.90;;;;;;6234275;23;20476;-88
2021/08/30 07:23:55;;;;;;;12.00;10.30;;;14.90;99.90;;;;;;6208411;23;20770;-86
2021/08/30 07:26:21;;;;;;;11.63;10.43;;;15.00;99.90;;;;;;6208162;23;20441;-86
2021/08/30 07:28:49;;;;;;;12.20;10.70;;;14.90;99.90;;;;;;6201689;23;21153;-85
2021/08/30 07:31:15;;;;;;;10.70;9.70;;;14.90;99.90;;;;;;6205663;23;20497;-86
2021/08/30 07:33:41;;;;;;;10.80;9.70;;;14.80;99.90;;;;;;6229354;23;20394;-86
2021/08/30 07:36:07;;;;;;;11.23;10.13;;;14.70;99.90;;;;;;6230315;23;20706;-86
2021/08/30 07:38:33;;;;;;;11.70;10.50;;;14.70;99.90;;;;;;6206456;23;20401;-87
2021/08/30 07:40:59;;;;;;;10.77;9.67;;;14.70;99.90;;;;;;6207333;23;20550;-86
2021/08/30 07:43:24;;;;;;;12.50;11.23;;;14.70;99.90;;;;;;6231057;23;20159;-85
2021/08/30 07:45:50;;;;;;;12.37;11.20;;;14.80;99.90;;;;;;6206826;23;20468;-85
2021/08/30 07:48:16;;;;;;;10.73;9.63;;;14.80;99.90;;;;;;6206842;23;20190;-86
2021/08/30 07:50:42;;;;;;;10.40;9.33;;;14.90;99.90;;;;;;6232510;23;20462;-86
2021/08/30 07:53:08;;;;;;;11.17;9.20;;;15.00;99.90;;;;;;6233211;23;20224;-88
2021/08/30 07:55:36;;;;;;;10.60;9.50;;;15.00;99.90;;;;;;6233145;23;20396;-86
2021/08/30 07:58:03;;;;;;;11.20;10.00;;;15.00;99.90;;;;;;6233895;23;20505;-87
2021/08/30 08:00:28;;;;;;;10.53;9.43;;;14.90;99.90;;;;;;6208073;23;20401;-87
2021/08/30 08:02:54;;;;;;;10.23;9.23;;;14.90;99.90;;;;;;6230881;23;20398;-88
2021/08/30 08:05:20;;;;;;;11.17;10.00;;;15.00;99.90;;;;;;6232535;23;20191;-89
2021/08/30 08:07:45;;;;;;;10.17;9.17;;;15.20;99.90;;;;;;6210191;23;20186;-89
2021/08/30 08:10:11;;;;;;;10.07;8.97;;;15.30;99.90;;;;;;6235313;23;20249;-89
2021/08/30 08:12:37;;;;;;;18.20;16.30;;;15.30;99.90;;;;;;6236236;23;20186;-88
2021/08/30 08:15:04;;;;;;;8.53;7.73;;;15.50;99.90;;;;;;6210097;23;20170;-89
2021/08/30 08:17:31;;;;;;;9.30;8.50;;;15.40;99.90;;;;;;6233758;23;20233;-89
2021/08/30 08:19:56;;;;;;;9.60;8.70;;;15.20;99.90;;;;;;6209285;23;20429;-88
2021/08/30 08:22:25;;;;;;;10.23;8.97;;;15.20;99.90;;;;;;6207940;23;20397;-90
2021/08/30 08:24:53;;;;;;;7.90;7.20;;;15.10;99.90;;;;;;6210110;23;20167;-89
2021/08/30 08:27:18;;;;;;;8.57;7.70;;;15.10;99.90;;;;;;6210068;23;20740;-89
2021/08/30 08:29:47;;;;;;;8.77;7.83;;;15.20;99.90;;;;;;6208336;23;20394;-89
2021/08/30 08:32:16;;;;;;;8.10;7.30;;;15.20;99.90;;;;;;6209136;23;20167;-91
2021/08/30 08:34:41;;;;;;;8.07;7.33;;;15.30;99.90;;;;;;6209823;23;20390;-89
2021/08/30 08:37:08;;;;;;;7.47;6.77;;;15.20;99.90;;;;;;6209374;23;20906;-89
2021/08/30 08:39:35;;;;;;;8.40;7.60;;;15.20;99.90;;;;;;6208999;23;20166;-88
2021/08/30 08:42:01;;;;;;;7.87;6.60;;;15.30;99.90;;;;;;6205087;23;20440;-89
2021/08/30 08:44:27;;;;;;;9.07;8.07;;;15.30;99.90;;;;;;6210448;23;20480;-89
2021/08/30 08:46:53;;;;;;;8.47;7.57;;;15.30;99.90;;;;;;6206353;23;20484;-89
2021/08/30 08:49:20;;;;;;;8.17;7.40;;;15.10;99.90;;;;;;6209257;23;20417;-89
2021/08/30 08:51:46;;;;;;;7.57;6.60;;;15.20;99.90;;;;;;6208101;23;20170;-89
2021/08/30 08:54:13;;;;;;;8.50;7.77;;;15.10;99.90;;;;;;6207352;23;20394;-89
2021/08/30 08:56:39;;;;;;;7.40;6.70;;;15.10;99.90;;;;;;6207148;23;20474;-90
2021/08/30 08:59:05;;;;;;;8.07;7.27;;;15.00;99.90;;;;;;6207900;23;20495;-89
2021/08/30 09:01:32;;;;;;;7.50;6.80;;;15.00;99.90;;;;;;6208115;23;20880;-90
2021/08/30 09:03:58;;;;;;;7.70;7.00;;;15.00;99.90;;;;;;6209591;23;20170;-88
2021/08/30 09:06:42;;;;;;;7.07;6.47;;;15.00;99.90;;;;;;6209425;23;20437;-89
2021/08/30 09:09:17;;;;;;;7.30;6.60;;;15.10;99.90;;;;;;6208996;23;20385;-89
2021/08/30 09:11:53;;;;;;;7.80;7.20;;;15.10;99.90;;;;;;6208951;23;20458;-89
2021/08/30 09:14:24;;;;;;;6.40;5.90;;;15.10;99.90;;;;;;6210667;23;20393;-89
2021/08/30 09:17:02;;;;;;;6.40;5.80;;;15.00;99.90;;;;;;6210791;23;20398;-89
2021/08/30 09:19:28;;;;;;;6.33;5.80;;;15.00;99.90;;;;;;6237204;22;20404;-90
2021/08/30 09:21:54;;;;;;;6.80;6.10;;;15.00;99.90;;;;;;6265975;22;20455;-89
2021/08/30 09:24:22;;;;;;;6.83;6.13;;;15.40;99.90;;;;;;6264088;22;20245;-88
2021/08/30 09:26:57;;;;;;;6.17;5.67;;;15.90;99.90;;;;;;6239853;22;20225;-88
2021/08/30 09:29:28;;;;;;;6.37;5.77;;;16.10;99.90;;;;;;6236738;22;20406;-88
2021/08/30 09:32:05;;;;;;;7.53;6.70;;;16.10;99.90;;;;;;6231212;22;20397;-89
2021/08/30 09:34:36;;;;;;;7.37;6.70;;;15.90;99.90;;;;;;6235496;22;20872;-88
2021/08/30 09:37:04;;;;;;;8.50;7.70;;;16.00;99.90;;;;;;6259228;22;20393;-88
2021/08/30 09:39:33;;;;;;;7.77;7.07;;;15.90;99.90;;;;;;6235319;22;20408;-88
2021/08/30 09:42:12;;;;;;;8.63;7.70;;;15.90;99.90;;;;;;6261543;22;20384;-88
2021/08/30 09:44:38;;;;;;;7.67;6.97;;;15.80;99.90;;;;;;6233720;22;20459;-90
2021/08/30 09:47:14;;;;;;;8.67;7.93;;;15.80;99.90;;;;;;6261416;22;20766;-88
2021/08/30 09:49:42;;;;;;;9.13;8.07;;;15.70;99.90;;;;;;6234775;22;20173;-89
2021/08/30 09:52:08;;;;;;;9.03;8.23;;;15.70;99.90;;;;;;6260109;22;20389;-88
2021/08/30 09:54:35;;;;;;;9.00;8.10;;;15.80;99.90;;;;;;6260714;22;20401;-88
2021/08/30 09:57:05;;;;;;;10.20;8.20;;;16.00;99.90;;;;;;6259503;22;20389;-89
2021/08/30 09:59:31;;;;;;;8.40;7.57;;;16.10;99.90;;;;;;6233824;22;20401;-89
2021/08/30 10:02:00;;;;;;;10.87;8.27;;;16.10;99.90;;;;;;6259646;22;20393;-88
2021/08/30 10:04:26;;;;;;;8.20;7.40;;;16.10;99.90;;;;;;6233763;22;20489;-88
2021/08/30 10:06:54;;;;;;;8.40;7.60;;;16.10;99.90;;;;;;6259741;22;20893;-89
2021/08/30 10:09:21;;;;;;;9.53;8.63;;;16.00;99.90;;;;;;6233735;22;20241;-88
2021/08/30 10:11:50;;;;;;;9.50;8.70;;;15.90;99.90;;;;;;6229858;22;20803;-88
2021/08/30 10:14:19;;;;;;;8.53;7.73;;;15.80;99.90;;;;;;6260754;22;20826;-89
2021/08/30 10:16:45;;;;;;;9.80;8.80;;;15.70;99.90;;;;;;6257392;22;20412;-89
2021/08/30 10:19:12;;;;;;;11.57;10.43;;;15.60;99.90;;;;;;6233685;22;20495;-89
2021/08/30 10:21:46;;;;;;;11.27;10.27;;;15.50;99.90;;;;;;6232231;22;20432;-89
2021/08/30 10:24:17;;;;;;;9.87;8.80;;;15.40;99.90;;;;;;6225438;22;20405;-89
2021/08/30 10:26:46;;;;;;;9.00;8.20;;;15.40;99.90;;;;;;6256696;22;20582;-88
2021/08/30 10:29:18;;;;;;;11.03;10.00;;;15.50;99.90;;;;;;6258493;22;20480;-87
2021/08/30 10:31:52;;;;;;;10.80;9.70;;;15.60;99.90;;;;;;6232197;22;20405;-87
2021/08/30 10:34:32;;;;;;;12.23;10.50;;;15.70;99.90;;;;;;6281535;22;20717;-87
2021/08/30 10:37:02;;;;;;;11.37;10.17;;;15.90;99.90;;;;;;6232722;22;20392;-88
2021/08/30 10:39:41;;;;;;;9.40;8.50;;;16.60;99.90;;;;;;6233831;22;20393;-88
2021/08/30 10:42:14;;;;;;;8.70;7.90;;;17.30;99.90;;;;;;6233725;22;20474;-91
2021/08/30 10:44:54;;;;;;;9.17;8.27;;;18.00;99.90;;;;;;6259784;22;20483;-89
2021/08/30 10:47:25;;;;;;;9.20;8.40;;;18.20;99.90;;;;;;6259463;22;20811;-87
2021/08/30 10:49:52;;;;;;;9.17;8.27;;;17.60;99.90;;;;;;6258234;22;20424;-88
2021/08/30 10:52:18;;;;;;;8.70;7.90;;;17.20;99.90;;;;;;6257551;22;20401;-89
2021/08/30 10:54:56;;;;;;;9.40;8.50;;;16.80;99.90;;;;;;6258121;22;20890;-90
2021/08/30 10:57:51;;;;;;;8.50;7.80;;;16.90;99.90;;;;;;6257931;22;20424;-89
2021/08/30 11:00:28;;;;;;;8.13;7.00;;;17.10;99.90;;;;;;6255926;22;20408;-88
2021/08/30 11:02:55;;;;;;;6.87;6.20;;;16.90;99.90;;;;;;6259541;22;20422;-88
2021/08/30 11:05:31;;;;;;;8.20;7.30;;;16.70;99.90;;;;;;6258248;22;20440;-89
2021/08/30 11:07:58;;;;;;;7.97;7.17;;;16.60;99.90;;;;;;6257465;22;20397;-90
2021/08/30 11:10:27;;;;;;;11.30;7.40;;;16.10;99.90;;;;;;6258922;22;20409;-89
2021/08/30 11:12:53;;;;;;;8.20;7.40;;;15.80;99.90;;;;;;6261553;22;20459;-90
2021/08/30 11:15:19;;;;;;;10.50;8.37;;;15.90;99.90;;;;;;6258892;22;20496;-88
2021/08/30 11:17:44;;;;;;;10.10;9.00;;;16.10;99.90;;;;;;6258840;22;20656;-88
2021/08/30 11:20:27;;;;;;;9.67;8.70;;;16.30;99.90;;;;;;6257484;22;20413;-87
2021/08/30 11:22:54;;;;;;;9.97;8.97;;;16.80;99.90;;;;;;6258868;22;20485;-87
2021/08/30 11:25:20;;;;;;;9.23;8.17;;;16.80;99.90;;;;;;6259418;22;20725;-88
2021/08/30 11:27:47;;;;;;;9.07;8.10;;;16.80;99.90;;;;;;6259054;22;20393;-87
2021/08/30 11:30:14;;;;;;;10.20;9.20;;;16.80;99.90;;;;;;6258454;22;20389;-88
2021/08/30 11:32:40;;;;;;;11.20;10.10;;;16.40;99.90;;;;;;6257941;22;20879;-90
2021/08/30 11:35:08;;;;;;;9.03;8.23;;;16.70;99.90;;;;;;6232912;22;20396;-88
2021/08/30 11:37:35;;;;;;;8.57;7.77;;;17.00;99.90;;;;;;6253621;22;20428;-90
2021/08/30 11:40:05;;;;;;;10.80;9.80;;;17.40;99.90;;;;;;6258529;22;20397;-88
2021/08/30 11:42:33;;;;;;;8.80;8.00;;;17.50;99.90;;;;;;6257567;22;20393;-89
2021/08/30 11:45:04;;;;;;;9.77;8.70;;;17.50;99.90;;;;;;6258524;22;20446;-89
2021/08/30 11:47:30;;;;;;;9.23;8.33;;;17.40;99.90;;;;;;6257727;22;20840;-90
2021/08/30 11:50:01;;;;;;;8.63;7.93;;;17.60;99.90;;;;;;6230634;22;20408;-89
2021/08/30 11:52:29;;;;;;;8.63;7.73;;;17.50;99.90;;;;;;6258234;22;20450;-89
2021/08/30 11:55:07;;;;;;;8.80;7.97;;;17.30;99.90;;;;;;6258811;22;20389;-88
2021/08/30 11:57:41;;;;;;;9.60;8.70;;;17.90;99.90;;;;;;6257930;22;20401;-87
2021/08/30 12:00:11;;;;;;;8.63;7.73;;;17.90;99.90;;;;;;6231933;22;20392;-88
2021/08/30 12:02:36;;;;;;;10.20;8.90;;;17.80;99.90;;;;;;6257641;22;20404;-87
2021/08/30 12:05:05;;;;;;;9.20;8.30;;;17.80;99.90;;;;;;6257323;22;20425;-88
2021/08/30 12:07:36;;;;;;;8.77;7.97;;;17.70;99.90;;;;;;6257935;22;20643;-89
2021/08/30 12:10:05;;;;;;;9.10;8.30;;;17.30;99.90;;;;;;6257582;22;20419;-90
2021/08/30 12:12:36;;;;;;;11.03;8.90;;;17.20;99.90;;;;;;6258574;22;20488;-88
2021/08/30 12:15:06;;;;;;;8.00;7.30;;;17.40;99.90;;;;;;6257560;22;20385;-89
2021/08/30 12:17:44;;;;;;;8.67;7.90;;;17.50;99.90;;;;;;6255138;22;20401;-89
2021/08/30 12:20:16;;;;;;;8.30;7.07;;;17.60;99.90;;;;;;6202607;23;20397;-89
2021/08/30 12:22:50;;;;;;;8.60;7.87;;;17.30;99.90;;;;;;6202830;23;20841;-88
2021/08/30 12:25:22;;;;;;;7.97;7.20;;;17.50;99.90;;;;;;6202941;23;20441;-90
2021/08/30 12:27:51;;;;;;;8.80;7.90;;;17.10;99.90;;;;;;6204102;23;20524;-85
2021/08/30 12:30:43;;;;;;;9.70;8.70;;;17.00;99.90;;;;;;6202162;23;20865;-87
2021/08/30 12:33:17;;;;;;;10.57;9.57;;;17.30;99.90;;;;;;6191614;23;20385;-85
2021/08/30 12:35:46;;;;;;;10.60;9.63;;;17.20;99.90;;;;;;6202076;23;20722;-85
2021/08/30 12:38:20;;;;;;;11.30;9.63;;;17.30;99.90;;;;;;6202568;23;20393;-85
2021/08/30 12:40:49;;;;;;;10.83;9.83;;;17.30;99.90;;;;;;6228919;23;20408;-85
2021/08/30 12:43:16;;;;;;;12.30;10.50;;;17.30;99.90;;;;;;6203845;23;20741;-85
2021/08/30 12:45:43;;;;;;;10.97;9.90;;;17.20;99.90;;;;;;6202343;23;20481;-85
2021/08/30 12:48:09;;;;;;;12.43;10.60;;;17.10;99.90;;;;;;6204796;23;20390;-85
2021/08/30 12:50:37;;;;;;;12.03;10.47;;;16.90;99.90;;;;;;6202664;23;20485;-85